Time;durP1;ratioP1;P1;durP2;ratioP2;P2;SDS_P1;SDS_P2;PMS_P1;PMS_P2;Temp;Humidity;BMP_temperature;BMP_pressure;BME280_temperature;BME280_humidity;BME280_pressure;Samples;Min_cycle;Max_cycle;Signal;HPM_P1;HPM_P2
2023/12/29 00:00:33;;;;;;;11.73;3.42;;;10.00;99.90;;;;;;5074818;28;20128;-67
2023/12/29 00:02:59;;;;;;;18.17;3.78;;;10.00;99.90;;;;;;5075039;28;20488;-66
2023/12/29 00:05:25;;;;;;;14.65;2.97;;;10.10;99.90;;;;;;5075063;28;20048;-66
2023/12/29 00:07:51;;;;;;;15.43;3.53;;;10.10;99.90;;;;;;5073653;28;20127;-66
2023/12/29 00:10:16;;;;;;;15.60;3.28;;;10.10;99.90;;;;;;5075054;28;20403;-66
2023/12/29 00:12:42;;;;;;;13.23;3.33;;;10.00;99.90;;;;;;5073350;28;20489;-67
2023/12/29 00:15:08;;;;;;;16.27;3.45;;;10.10;99.90;;;;;;5073738;28;20513;-67
2023/12/29 00:17:37;;;;;;;12.27;3.15;;;10.00;99.90;;;;;;5073400;28;20052;-69
2023/12/29 00:20:07;;;;;;;11.15;3.53;;;10.10;99.90;;;;;;5074826;28;20438;-66
2023/12/29 00:22:33;;;;;;;12.80;3.25;;;10.10;99.90;;;;;;5073741;28;20049;-72
2023/12/29 00:24:59;;;;;;;12.10;3.22;;;10.10;99.90;;;;;;5074696;28;20044;-66
2023/12/29 00:27:25;;;;;;;17.88;3.72;;;10.10;99.90;;;;;;5073905;28;20048;-66
2023/12/29 00:29:51;;;;;;;15.75;3.75;;;10.10;99.90;;;;;;5073949;28;20498;-67
2023/12/29 00:32:16;;;;;;;13.02;3.42;;;10.10;99.90;;;;;;5074346;28;20049;-66
2023/12/29 00:34:42;;;;;;;16.90;4.07;;;10.10;99.90;;;;;;5074002;28;20068;-67
2023/12/29 00:37:08;;;;;;;19.80;3.72;;;10.10;99.90;;;;;;5073475;28;20056;-67
2023/12/29 00:39:38;;;;;;;13.60;3.58;;;10.10;99.90;;;;;;5073383;28;20056;-67
2023/12/29 00:42:04;;;;;;;21.15;3.88;;;10.00;99.90;;;;;;5073186;28;20395;-67
2023/12/29 00:44:30;;;;;;;13.45;3.78;;;9.90;99.90;;;;;;5074304;28;20065;-70
2023/12/29 00:46:56;;;;;;;17.58;3.35;;;9.90;99.90;;;;;;5073832;28;20052;-67
2023/12/29 00:49:21;;;;;;;13.48;3.13;;;9.90;99.90;;;;;;5074263;28;20052;-67
2023/12/29 00:51:47;;;;;;;17.48;3.58;;;9.90;99.90;;;;;;5073786;28;20045;-67
2023/12/29 00:54:13;;;;;;;13.70;3.38;;;9.90;99.90;;;;;;5073036;28;20040;-67
2023/12/29 00:56:39;;;;;;;16.63;3.63;;;9.90;99.90;;;;;;5073725;28;20048;-71
2023/12/29 00:59:05;;;;;;;20.13;3.70;;;9.90;99.90;;;;;;5056421;28;20059;-67
2023/12/29 01:01:35;;;;;;;15.80;3.50;;;9.80;99.90;;;;;;5074223;28;20349;-67
2023/12/29 01:04:01;;;;;;;18.80;3.80;;;9.80;99.90;;;;;;5073355;28;20040;-67
2023/12/29 01:06:27;;;;;;;17.63;3.60;;;9.80;99.90;;;;;;5056226;28;20060;-67
2023/12/29 01:08:52;;;;;;;14.65;3.20;;;9.80;99.90;;;;;;5055946;28;20454;-67
2023/12/29 01:11:18;;;;;;;18.02;2.97;;;9.90;99.90;;;;;;5074068;28;20047;-66
2023/12/29 01:13:44;;;;;;;16.38;3.60;;;9.90;99.90;;;;;;5073388;28;20075;-67
2023/12/29 01:16:09;;;;;;;15.20;3.10;;;9.90;99.90;;;;;;5072415;28;20051;-67
2023/12/29 01:18:35;;;;;;;13.48;3.70;;;9.80;99.90;;;;;;5073711;28;20131;-66
2023/12/29 01:21:00;;;;;;;16.83;3.30;;;9.90;99.90;;;;;;5072004;28;20166;-67
2023/12/29 01:23:26;;;;;;;13.90;3.53;;;9.90;99.90;;;;;;5073706;28;20044;-66
2023/12/29 01:25:52;;;;;;;14.55;3.42;;;9.80;99.90;;;;;;5071872;28;20060;-66
2023/12/29 01:28:17;;;;;;;20.65;3.42;;;9.80;99.90;;;;;;5073306;28;20365;-67
2023/12/29 01:30:43;;;;;;;15.02;3.38;;;9.70;99.90;;;;;;5072070;28;20047;-72
2023/12/29 01:33:09;;;;;;;14.48;3.50;;;9.70;99.90;;;;;;5073340;28;20044;-66
2023/12/29 01:35:34;;;;;;;19.20;4.15;;;9.70;99.90;;;;;;5072336;28;20048;-66
2023/12/29 01:38:02;;;;;;;14.77;3.42;;;9.70;99.90;;;;;;5072530;28;20446;-67
2023/12/29 01:40:27;;;;;;;11.00;3.17;;;9.70;99.90;;;;;;5073150;28;20044;-67
2023/12/29 01:42:53;;;;;;;16.10;3.85;;;9.70;99.90;;;;;;5072582;28;20048;-67
2023/12/29 01:45:24;;;;;;;19.88;4.03;;;9.80;99.90;;;;;;5072145;28;20131;-66
2023/12/29 01:47:51;;;;;;;18.42;4.82;;;9.70;99.90;;;;;;5071731;28;20052;-67
2023/12/29 01:50:19;;;;;;;22.20;4.78;;;9.70;99.90;;;;;;5072087;28;20052;-66
2023/12/29 01:52:48;;;;;;;20.98;4.47;;;9.70;99.90;;;;;;5071771;28;20150;-71
2023/12/29 01:55:18;;;;;;;22.90;4.40;;;9.70;99.90;;;;;;5071958;28;20391;-66
2023/12/29 01:57:44;;;;;;;13.48;3.35;;;9.70;99.90;;;;;;5071885;28;20051;-69
2023/12/29 02:00:11;;;;;;;12.93;3.25;;;9.70;99.90;;;;;;5072370;28;20131;-66
2023/12/29 02:02:37;;;;;;;12.50;3.20;;;9.70;99.90;;;;;;5072882;28;20118;-66
2023/12/29 02:05:03;;;;;;;13.98;3.08;;;9.70;99.90;;;;;;5072462;28;20445;-67
2023/12/29 02:07:31;;;;;;;10.77;3.33;;;9.60;99.90;;;;;;5072528;28;20051;-67
2023/12/29 02:10:00;;;;;;;15.20;2.85;;;9.60;99.90;;;;;;5072180;28;20048;-67
2023/12/29 02:12:26;;;;;;;8.57;2.20;;;9.60;99.90;;;;;;5071117;28;20051;-67
2023/12/29 02:14:52;;;;;;;8.85;2.00;;;9.60;99.90;;;;;;5072113;28;20049;-66
2023/12/29 02:17:39;;;;;;;7.32;2.05;;;9.60;99.90;;;;;;5072517;28;20074;-66
2023/12/29 02:20:07;;;;;;;8.32;2.00;;;9.60;99.90;;;;;;5054162;28;20045;-66
2023/12/29 02:22:32;;;;;;;4.78;1.48;;;9.50;99.90;;;;;;5072280;28;20483;-67
2023/12/29 02:24:58;;;;;;;7.20;2.15;;;9.50;99.90;;;;;;5072014;28;20051;-66
2023/12/29 02:27:42;;;;;;;10.00;2.38;;;9.50;99.90;;;;;;5071606;28;20045;-66
2023/12/29 02:30:22;;;;;;;7.03;2.20;;;9.50;99.90;;;;;;5071864;28;20040;-67
2023/12/29 02:32:50;;;;;;;7.60;1.67;;;9.40;99.90;;;;;;5072319;28;20181;-66
2023/12/29 02:35:24;;;;;;;9.10;2.45;;;9.50;99.90;;;;;;5072009;28;20052;-66
2023/12/29 02:37:50;;;;;;;9.02;2.97;;;9.40;99.90;;;;;;5072208;28;20055;-67
2023/12/29 02:40:16;;;;;;;13.10;3.03;;;9.40;99.90;;;;;;5071545;28;20618;-66
2023/12/29 02:42:47;;;;;;;14.40;3.78;;;9.40;99.90;;;;;;5071119;28;20127;-66
2023/12/29 02:45:13;;;;;;;8.10;2.78;;;9.40;99.90;;;;;;5070337;28;20617;-66
2023/12/29 02:47:39;;;;;;;11.85;3.17;;;9.40;99.90;;;;;;5054425;28;20040;-66
2023/12/29 02:50:05;;;;;;;18.98;3.30;;;9.40;99.90;;;;;;5070686;28;20056;-66
2023/12/29 02:52:30;;;;;;;12.63;3.05;;;9.40;99.90;;;;;;5072109;28;20080;-66
2023/12/29 02:54:56;;;;;;;21.00;4.13;;;9.30;99.90;;;;;;5071736;28;20094;-72
2023/12/29 02:57:22;;;;;;;13.80;2.97;;;9.30;99.90;;;;;;5071849;28;20086;-66
2023/12/29 02:59:47;;;;;;;13.15;3.42;;;9.20;99.90;;;;;;5070698;28;20047;-66
2023/12/29 03:02:13;;;;;;;15.68;3.53;;;9.20;99.90;;;;;;5071626;28;20391;-66
2023/12/29 03:04:39;;;;;;;22.00;4.45;;;9.20;99.90;;;;;;5071974;28;20048;-66
2023/12/29 03:07:04;;;;;;;16.48;3.75;;;9.20;99.90;;;;;;5071431;28;20068;-67
2023/12/29 03:09:30;;;;;;;17.52;3.42;;;9.30;99.90;;;;;;5070337;28;20045;-66
2023/12/29 03:11:56;;;;;;;15.20;3.90;;;9.30;99.90;;;;;;5071779;28;20044;-70
2023/12/29 03:14:21;;;;;;;18.67;4.18;;;9.30;99.90;;;;;;5070287;28;20500;-66
2023/12/29 03:16:47;;;;;;;17.30;4.18;;;9.20;99.90;;;;;;5071747;28;20502;-67
2023/12/29 03:19:13;;;;;;;22.80;4.93;;;9.30;99.90;;;;;;5071281;28;20068;-66
2023/12/29 03:21:38;;;;;;;22.75;5.05;;;9.30;99.90;;;;;;5070412;28;20129;-66
2023/12/29 03:24:04;;;;;;;23.25;3.95;;;9.30;99.90;;;;;;5071114;28;20054;-67
2023/12/29 03:26:30;;;;;;;27.70;5.20;;;9.40;99.90;;;;;;5074778;28;20048;-66
2023/12/29 03:28:55;;;;;;;23.80;5.25;;;9.30;99.90;;;;;;5075697;28;20078;-66
2023/12/29 03:31:21;;;;;;;29.73;5.63;;;9.30;99.90;;;;;;5074528;28;20094;-66
2023/12/29 03:33:47;;;;;;;27.67;5.90;;;9.40;99.90;;;;;;5075527;28;20059;-67
2023/12/29 03:36:12;;;;;;;24.88;4.55;;;9.40;99.90;;;;;;5075339;28;20052;-67
2023/12/29 03:38:38;;;;;;;24.15;5.07;;;9.50;99.90;;;;;;5075337;28;20076;-67
2023/12/29 03:41:04;;;;;;;26.30;5.65;;;9.50;99.90;;;;;;5074743;28;20119;-67
2023/12/29 03:43:30;;;;;;;31.42;5.93;;;9.60;99.90;;;;;;5074087;28;20071;-67
2023/12/29 03:45:55;;;;;;;16.55;4.40;;;9.60;99.90;;;;;;5074398;28;20048;-67
2023/12/29 03:48:21;;;;;;;24.15;4.78;;;9.60;99.90;;;;;;5057242;28;20139;-67
2023/12/29 03:50:47;;;;;;;26.70;5.60;;;9.60;99.90;;;;;;5075483;28;20037;-67
2023/12/29 03:53:14;;;;;;;25.70;5.22;;;9.60;99.90;;;;;;5074823;28;20044;-67
2023/12/29 03:55:41;;;;;;;27.70;6.22;;;9.60;99.90;;;;;;5074223;28;20068;-67
2023/12/29 03:58:06;;;;;;;22.20;5.03;;;9.70;99.90;;;;;;5074437;28;20045;-67
2023/12/29 04:00:32;;;;;;;24.95;5.32;;;9.70;99.90;;;;;;5074870;28;20040;-67
2023/12/29 04:02:58;;;;;;;22.02;5.47;;;9.60;99.90;;;;;;5075155;28;20090;-67
2023/12/29 04:05:23;;;;;;;16.30;3.78;;;9.60;99.90;;;;;;5074635;28;20765;-66
2023/12/29 04:07:49;;;;;;;26.50;4.95;;;9.60;99.90;;;;;;5075121;28;20044;-67
2023/12/29 04:10:15;;;;;;;27.38;5.30;;;9.60;99.90;;;;;;5074573;28;20502;-67
2023/12/29 04:12:41;;;;;;;24.30;6.40;;;9.60;99.90;;;;;;5074830;28;20470;-67
2023/12/29 04:15:07;;;;;;;27.35;5.47;;;9.40;99.90;;;;;;5074774;28;20048;-72
2023/12/29 04:17:33;;;;;;;27.73;5.85;;;9.60;99.90;;;;;;5073301;28;20039;-66
2023/12/29 04:19:59;;;;;;;24.00;4.88;;;9.60;99.90;;;;;;5073762;28;20044;-66
2023/12/29 04:22:25;;;;;;;26.60;5.05;;;9.60;99.90;;;;;;5074275;28;20045;-66
2023/12/29 04:24:51;;;;;;;32.95;6.38;;;9.60;99.90;;;;;;5074747;28;20517;-66
2023/12/29 04:27:17;;;;;;;29.05;4.55;;;9.60;99.90;;;;;;5073064;28;20044;-67
2023/12/29 04:29:44;;;;;;;20.35;4.88;;;9.60;99.90;;;;;;5074708;28;20055;-67
2023/12/29 04:32:10;;;;;;;24.08;4.22;;;9.60;99.90;;;;;;5074330;28;20053;-71
2023/12/29 04:34:35;;;;;;;26.08;5.78;;;9.60;99.90;;;;;;5074694;28;20052;-72
2023/12/29 04:37:01;;;;;;;29.52;6.18;;;9.60;99.90;;;;;;5073247;28;20519;-67
2023/12/29 04:39:27;;;;;;;27.00;5.93;;;9.50;99.90;;;;;;5073826;28;20472;-67
2023/12/29 04:41:52;;;;;;;21.90;4.13;;;9.50;99.90;;;;;;5074394;28;20087;-67
2023/12/29 04:44:18;;;;;;;27.35;4.72;;;9.50;99.90;;;;;;5072606;28;20056;-67
2023/12/29 04:46:44;;;;;;;32.05;5.68;;;9.60;99.90;;;;;;5074318;28;20537;-67
2023/12/29 04:49:09;;;;;;;25.88;5.63;;;9.50;99.90;;;;;;5073191;28;20044;-67
2023/12/29 04:51:35;;;;;;;28.10;5.03;;;9.50;99.90;;;;;;5073853;28;20098;-67
2023/12/29 04:54:01;;;;;;;20.08;4.47;;;9.50;99.90;;;;;;5074107;28;20086;-67
2023/12/29 04:56:27;;;;;;;23.42;4.70;;;9.50;99.90;;;;;;5089704;28;20048;-67
2023/12/29 04:58:52;;;;;;;20.30;4.15;;;9.60;99.90;;;;;;5074149;28;20044;-67
2023/12/29 05:01:18;;;;;;;27.33;5.15;;;9.50;99.90;;;;;;5072326;28;20041;-67
2023/12/29 05:03:44;;;;;;;25.63;5.18;;;9.50;99.90;;;;;;5072875;28;20080;-67
2023/12/29 05:06:09;;;;;;;18.98;4.32;;;9.50;99.90;;;;;;5073985;28;20101;-67
2023/12/29 05:08:35;;;;;;;24.75;5.35;;;9.60;99.90;;;;;;5072318;28;20133;-67
2023/12/29 05:11:01;;;;;;;25.48;4.70;;;9.60;99.90;;;;;;5072852;28;20079;-67
2023/12/29 05:13:26;;;;;;;23.65;4.07;;;9.60;99.90;;;;;;5073217;28;20131;-67
2023/12/29 05:15:52;;;;;;;28.05;5.32;;;9.60;99.90;;;;;;5072757;28;20052;-67
2023/12/29 05:18:18;;;;;;;20.35;4.18;;;9.60;99.90;;;;;;5073280;28;20052;-67
2023/12/29 05:20:43;;;;;;;18.95;4.70;;;9.60;99.90;;;;;;5073586;28;20076;-67
2023/12/29 05:23:09;;;;;;;23.65;5.25;;;9.60;99.90;;;;;;5073655;28;20090;-67
2023/12/29 05:25:35;;;;;;;22.20;4.60;;;9.60;99.90;;;;;;5073076;28;20055;-67
2023/12/29 05:28:01;;;;;;;24.25;5.32;;;9.60;99.90;;;;;;5073644;28;20048;-67
2023/12/29 05:30:27;;;;;;;23.10;4.80;;;9.60;99.90;;;;;;5073086;28;20044;-67
2023/12/29 05:32:53;;;;;;;18.90;4.93;;;9.60;99.90;;;;;;5073602;28;20127;-67
2023/12/29 05:35:19;;;;;;;23.20;4.82;;;9.60;99.90;;;;;;5072095;28;20044;-73
2023/12/29 05:37:44;;;;;;;19.70;4.63;;;9.60;99.90;;;;;;5073617;28;20399;-66
2023/12/29 05:40:11;;;;;;;25.65;5.13;;;9.50;99.90;;;;;;5073053;28;20048;-67
2023/12/29 05:42:36;;;;;;;23.65;5.55;;;9.50;99.90;;;;;;5072767;28;20483;-68
2023/12/29 05:45:02;;;;;;;27.25;5.20;;;9.60;99.90;;;;;;5073346;28;20181;-67
2023/12/29 05:47:28;;;;;;;25.25;4.40;;;9.60;99.90;;;;;;5072079;28;20476;-67
2023/12/29 05:49:53;;;;;;;27.42;6.15;;;9.60;99.90;;;;;;5073271;28;20052;-67
2023/12/29 05:52:19;;;;;;;23.52;5.32;;;9.60;99.90;;;;;;5072956;28;20056;-72
2023/12/29 05:54:45;;;;;;;22.67;5.13;;;9.60;99.90;;;;;;5072946;28;20102;-67
2023/12/29 05:57:10;;;;;;;20.70;4.10;;;9.60;99.90;;;;;;5072972;28;20048;-67
2023/12/29 05:59:36;;;;;;;25.25;5.47;;;9.60;99.90;;;;;;5072637;28;20052;-67
2023/12/29 06:02:02;;;;;;;25.90;4.22;;;9.60;99.90;;;;;;5071472;28;20036;-66
2023/12/29 06:04:28;;;;;;;26.92;4.60;;;9.60;99.90;;;;;;5071372;28;20132;-67
2023/12/29 06:06:53;;;;;;;26.92;4.75;;;9.60;99.90;;;;;;5072722;28;20044;-67
2023/12/29 06:09:19;;;;;;;21.10;4.45;;;9.60;99.90;;;;;;5038437;28;20056;-67
2023/12/29 06:11:45;;;;;;;24.65;4.82;;;9.60;99.90;;;;;;5070970;28;20048;-67
2023/12/29 06:14:11;;;;;;;26.75;4.97;;;9.60;99.90;;;;;;5072637;28;20087;-67
2023/12/29 06:16:36;;;;;;;25.02;4.47;;;9.60;99.90;;;;;;5072215;28;20048;-67
2023/12/29 06:19:02;;;;;;;19.15;4.13;;;9.60;99.90;;;;;;5071592;28;20048;-67
2023/12/29 06:21:28;;;;;;;29.60;5.85;;;9.60;99.90;;;;;;5071932;28;20476;-67
2023/12/29 06:23:53;;;;;;;23.45;5.03;;;9.60;99.90;;;;;;5072429;28;20368;-67
2023/12/29 06:26:20;;;;;;;22.45;4.32;;;9.60;99.90;;;;;;5072475;28;20079;-68
2023/12/29 06:28:47;;;;;;;24.42;5.22;;;9.60;99.90;;;;;;5072005;28;20048;-68
2023/12/29 06:31:13;;;;;;;26.02;5.07;;;9.50;99.90;;;;;;5072412;28;20076;-68
2023/12/29 06:33:42;;;;;;;28.83;6.25;;;9.50;99.90;;;;;;5070495;28;20078;-68
2023/12/29 06:36:08;;;;;;;23.05;4.63;;;9.40;99.90;;;;;;5072451;28;20429;-67
2023/12/29 06:38:34;;;;;;;22.50;4.50;;;9.40;99.90;;;;;;5071868;28;20433;-68
2023/12/29 06:41:02;;;;;;;21.95;5.63;;;9.40;99.90;;;;;;5072284;28;20047;-68
2023/12/29 06:43:28;;;;;;;26.38;4.63;;;9.30;99.90;;;;;;5070496;28;20061;-73
2023/12/29 06:45:54;;;;;;;22.48;4.40;;;9.30;99.90;;;;;;5071203;28;20400;-68
2023/12/29 06:48:19;;;;;;;23.77;4.45;;;9.30;99.90;;;;;;5072299;28;20079;-68
2023/12/29 06:50:46;;;;;;;27.25;5.50;;;9.20;99.90;;;;;;5071686;28;20041;-68
2023/12/29 06:53:11;;;;;;;21.15;4.75;;;9.20;99.90;;;;;;5072147;28;20054;-68
2023/12/29 06:55:37;;;;;;;24.27;5.28;;;9.20;99.90;;;;;;5053860;28;20048;-67
2023/12/29 06:58:07;;;;;;;29.75;5.90;;;9.10;99.90;;;;;;5071636;28;20045;-67
2023/12/29 07:00:33;;;;;;;24.23;4.05;;;9.10;99.90;;;;;;5071541;28;20056;-68
2023/12/29 07:03:00;;;;;;;24.17;6.07;;;9.10;99.90;;;;;;5070822;28;20487;-67
2023/12/29 07:05:26;;;;;;;18.10;3.80;;;9.10;99.90;;;;;;5071831;28;20044;-67
2023/12/29 07:07:52;;;;;;;19.60;3.83;;;9.10;99.90;;;;;;5071558;28;20598;-67
2023/12/29 07:10:17;;;;;;;25.05;5.28;;;9.10;99.90;;;;;;5071969;28;20084;-67
2023/12/29 07:12:43;;;;;;;24.52;5.18;;;9.10;99.90;;;;;;5071355;28;20055;-66
2023/12/29 07:15:09;;;;;;;29.92;6.25;;;9.10;99.90;;;;;;5071478;28;20480;-66
2023/12/29 07:17:35;;;;;;;21.05;5.25;;;9.10;99.90;;;;;;5070296;28;20492;-67
2023/12/29 07:20:01;;;;;;;25.63;6.32;;;9.10;99.90;;;;;;5070770;28;20511;-66
2023/12/29 07:22:27;;;;;;;23.23;5.13;;;9.10;99.90;;;;;;5070846;28;20044;-67
2023/12/29 07:24:53;;;;;;;28.15;5.45;;;9.10;99.90;;;;;;5071582;28;20079;-69
2023/12/29 07:27:19;;;;;;;30.95;5.18;;;9.10;99.90;;;;;;5070376;28;20076;-66
2023/12/29 07:29:44;;;;;;;34.22;5.25;;;9.10;99.90;;;;;;5070454;28;20075;-66
2023/12/29 07:32:10;;;;;;;32.13;5.88;;;9.10;99.90;;;;;;5071871;28;20055;-67
2023/12/29 07:34:36;;;;;;;22.48;4.47;;;9.10;99.90;;;;;;5070186;28;20084;-70
2023/12/29 07:37:01;;;;;;;23.95;5.15;;;9.20;99.90;;;;;;5070600;28;20052;-66
2023/12/29 07:39:27;;;;;;;28.08;5.53;;;9.20;99.90;;;;;;5071727;28;20090;-67
2023/12/29 07:41:53;;;;;;;36.20;6.07;;;9.20;99.90;;;;;;5070974;28;20484;-68
2023/12/29 07:44:19;;;;;;;26.42;5.93;;;9.20;99.90;;;;;;5070012;28;20057;-68
2023/12/29 07:46:44;;;;;;;25.48;4.57;;;9.20;99.90;;;;;;5069933;28;20040;-68
2023/12/29 07:49:10;;;;;;;29.73;4.95;;;9.20;99.90;;;;;;5071524;28;20457;-69
2023/12/29 07:51:40;;;;;;;36.28;6.10;;;9.10;99.90;;;;;;5071584;28;20040;-71
2023/12/29 07:54:07;;;;;;;27.83;5.63;;;9.10;99.90;;;;;;5071363;28;20059;-67
2023/12/29 07:56:33;;;;;;;25.08;5.18;;;9.10;99.90;;;;;;5071068;28;20496;-68
2023/12/29 07:58:59;;;;;;;24.73;5.28;;;9.10;99.90;;;;;;5070879;28;20051;-67
2023/12/29 08:01:25;;;;;;;21.30;4.82;;;9.00;99.90;;;;;;5070087;28;20483;-67
2023/12/29 08:03:51;;;;;;;29.17;5.43;;;9.10;99.90;;;;;;5069715;28;20102;-67
2023/12/29 08:06:17;;;;;;;22.15;4.43;;;9.10;99.90;;;;;;5071068;28;20048;-66
2023/12/29 08:08:42;;;;;;;33.55;6.88;;;9.10;99.90;;;;;;5070824;28;20131;-67
2023/12/29 08:11:17;;;;;;;20.13;4.30;;;9.10;99.90;;;;;;5072760;28;20045;-67
2023/12/29 08:13:48;;;;;;;24.52;5.70;;;9.10;99.90;;;;;;5074503;28;20040;-67
2023/12/29 08:16:17;;;;;;;34.88;6.32;;;9.10;99.90;;;;;;5074430;28;20522;-66
2023/12/29 08:18:43;;;;;;;26.27;4.97;;;9.10;99.90;;;;;;5074299;28;20254;-70
2023/12/29 08:21:08;;;;;;;28.38;5.25;;;9.20;99.90;;;;;;5074659;28;20137;-67
2023/12/29 08:23:34;;;;;;;23.80;5.00;;;9.30;99.90;;;;;;5056680;28;20056;-73
2023/12/29 08:26:02;;;;;;;22.05;4.40;;;9.20;99.90;;;;;;5073349;28;20153;-74
2023/12/29 08:28:28;;;;;;;25.35;4.93;;;9.20;99.90;;;;;;5073448;28;20040;-74
2023/12/29 08:30:53;;;;;;;28.23;5.43;;;9.20;99.90;;;;;;5039813;28;20048;-74
2023/12/29 08:33:19;;;;;;;25.38;5.03;;;9.30;99.90;;;;;;5073385;28;20044;-74
2023/12/29 08:35:45;;;;;;;20.42;4.40;;;9.20;99.90;;;;;;5072844;28;20043;-76
2023/12/29 08:38:11;;;;;;;25.55;4.97;;;9.20;99.90;;;;;;5073593;28;20049;-76
2023/12/29 08:40:37;;;;;;;23.23;4.40;;;9.20;99.90;;;;;;5056539;28;20055;-73
2023/12/29 08:43:03;;;;;;;21.80;5.03;;;9.30;99.90;;;;;;5055672;28;20657;-73
2023/12/29 08:45:29;;;;;;;21.27;4.85;;;9.30;99.90;;;;;;5056746;28;20063;-75
2023/12/29 08:47:55;;;;;;;18.13;4.03;;;9.30;99.90;;;;;;5039704;28;20135;-75
2023/12/29 08:50:21;;;;;;;23.42;5.38;;;9.30;99.90;;;;;;5072990;28;20127;-74
2023/12/29 08:52:47;;;;;;;26.55;4.90;;;9.30;99.90;;;;;;5072466;28;20118;-76
2023/12/29 08:55:13;;;;;;;18.38;4.47;;;9.30;99.90;;;;;;5072720;28;20040;-74
2023/12/29 08:57:38;;;;;;;22.60;4.32;;;9.30;99.90;;;;;;5072467;28;20415;-72
2023/12/29 09:00:05;;;;;;;27.20;5.35;;;9.30;99.90;;;;;;5072578;28;20048;-72
2023/12/29 09:02:30;;;;;;;20.17;4.05;;;9.20;99.90;;;;;;5072699;28;20471;-73
2023/12/29 09:04:56;;;;;;;24.83;4.53;;;9.20;99.90;;;;;;5072358;28;20084;-73
2023/12/29 09:07:22;;;;;;;22.88;4.50;;;9.30;99.90;;;;;;5072996;28;20484;-75
2023/12/29 09:09:48;;;;;;;22.80;4.65;;;9.30;99.90;;;;;;5039560;28;20049;-75
2023/12/29 09:12:14;;;;;;;26.50;5.47;;;9.20;99.90;;;;;;5072287;28;20071;-73
2023/12/29 09:14:40;;;;;;;25.20;4.90;;;9.20;99.90;;;;;;5072611;28;20403;-74
2023/12/29 09:17:05;;;;;;;19.33;4.80;;;9.20;99.90;;;;;;5072281;28;20413;-75
2023/12/29 09:19:31;;;;;;;16.92;4.55;;;9.20;99.90;;;;;;5072679;28;20044;-73
2023/12/29 09:22:03;;;;;;;31.00;5.75;;;9.20;99.90;;;;;;5071002;28;20045;-74
2023/12/29 09:24:35;;;;;;;28.90;5.35;;;9.20;99.90;;;;;;5073597;28;20098;-72
2023/12/29 09:27:00;;;;;;;31.92;6.20;;;9.30;99.90;;;;;;5071981;28;20040;-73
2023/12/29 09:29:26;;;;;;;26.35;5.28;;;9.30;99.90;;;;;;5072461;28;20095;-73
2023/12/29 09:31:52;;;;;;;24.77;4.50;;;9.30;99.90;;;;;;5055649;28;20062;-76
2023/12/29 09:34:18;;;;;;;31.27;4.82;;;9.30;99.90;;;;;;5071817;28;20488;-73
2023/12/29 09:36:43;;;;;;;22.45;5.10;;;9.40;99.90;;;;;;5072179;28;20049;-73
2023/12/29 09:39:09;;;;;;;23.45;5.60;;;9.40;99.90;;;;;;5071966;28;20044;-73
2023/12/29 09:41:39;;;;;;;25.83;5.10;;;9.40;99.90;;;;;;5071786;28;20082;-73
2023/12/29 09:44:13;;;;;;;29.20;4.70;;;9.40;99.90;;;;;;5071107;28;20103;-73
2023/12/29 09:46:42;;;;;;;24.23;4.97;;;9.40;99.90;;;;;;5072124;28;20468;-73
2023/12/29 09:49:08;;;;;;;21.80;3.88;;;9.50;99.90;;;;;;5054984;28;20480;-73
2023/12/29 09:51:36;;;;;;;27.85;5.60;;;9.60;99.90;;;;;;5071809;28;20445;-74
2023/12/29 09:54:02;;;;;;;26.45;4.07;;;9.50;99.90;;;;;;5071258;28;20468;-73
2023/12/29 09:56:28;;;;;;;23.48;5.00;;;9.60;99.90;;;;;;5071966;28;20045;-73
2023/12/29 09:58:56;;;;;;;22.15;4.40;;;9.60;99.90;;;;;;5071820;28;20044;-74
2023/12/29 10:01:24;;;;;;;20.77;4.20;;;9.60;99.90;;;;;;5072488;28;20044;-73
2023/12/29 10:03:49;;;;;;;20.00;4.28;;;9.70;99.90;;;;;;5071498;28;20110;-73
2023/12/29 10:06:23;;;;;;;20.05;4.15;;;9.70;99.90;;;;;;5054720;28;20135;-73
2023/12/29 10:08:50;;;;;;;24.60;4.97;;;9.70;99.90;;;;;;5071777;28;20049;-73
2023/12/29 10:11:21;;;;;;;20.27;4.40;;;9.70;99.90;;;;;;5054512;28;20075;-73
2023/12/29 10:13:49;;;;;;;22.52;4.50;;;9.70;99.90;;;;;;5071582;28;20458;-74
2023/12/29 10:16:38;;;;;;;20.75;4.20;;;9.70;99.90;;;;;;5070936;28;20077;-73
2023/12/29 10:19:18;;;;;;;21.15;4.47;;;9.80;99.90;;;;;;5070912;28;20052;-72
2023/12/29 10:21:49;;;;;;;25.33;4.63;;;9.80;99.90;;;;;;5072317;28;20040;-72
2023/12/29 10:24:20;;;;;;;25.25;5.07;;;9.80;99.90;;;;;;5071038;28;20052;-74
2023/12/29 10:26:47;;;;;;;19.23;3.67;;;9.80;99.90;;;;;;5071287;28;20056;-74
2023/12/29 10:29:13;;;;;;;23.92;4.45;;;9.80;99.90;;;;;;5054248;28;20053;-74
2023/12/29 10:31:39;;;;;;;19.08;4.32;;;9.80;99.90;;;;;;5071237;28;20056;-74
2023/12/29 10:34:22;;;;;;;19.55;3.90;;;9.80;99.90;;;;;;5053639;28;20126;-74
2023/12/29 10:36:51;;;;;;;16.80;3.58;;;9.80;99.90;;;;;;5071169;28;20163;-73
2023/12/29 10:39:16;;;;;;;14.32;3.75;;;9.80;99.90;;;;;;5053983;28;20045;-71
2023/12/29 10:41:42;;;;;;;12.57;3.28;;;9.80;99.90;;;;;;5054224;28;20131;-73
2023/12/29 10:44:08;;;;;;;15.65;3.88;;;9.80;99.90;;;;;;5070510;28;20059;-74
2023/12/29 10:46:34;;;;;;;24.75;3.63;;;9.80;99.90;;;;;;5070999;28;20488;-74
2023/12/29 10:49:19;;;;;;;17.85;3.85;;;9.80;99.90;;;;;;5071185;28;20056;-77
2023/12/29 10:51:46;;;;;;;23.52;3.72;;;9.70;99.90;;;;;;5070630;28;20095;-76
2023/12/29 10:54:23;;;;;;;14.38;3.92;;;9.70;99.90;;;;;;5070530;28;20051;-74
2023/12/29 10:57:01;;;;;;;17.33;3.30;;;9.70;99.90;;;;;;5072338;28;20048;-78
2023/12/29 10:59:27;;;;;;;17.10;3.30;;;9.60;99.90;;;;;;5054148;28;20053;-78
2023/12/29 11:01:53;;;;;;;16.45;3.83;;;9.60;99.90;;;;;;5070860;28;20049;-77
2023/12/29 11:04:22;;;;;;;17.23;3.72;;;9.60;99.90;;;;;;5053772;28;20388;-77
2023/12/29 11:06:50;;;;;;;17.67;4.15;;;9.60;99.90;;;;;;5071063;28;20055;-78
2023/12/29 11:09:30;;;;;;;20.38;3.88;;;9.60;99.90;;;;;;5070715;28;20052;-78
2023/12/29 11:11:59;;;;;;;12.45;2.90;;;9.60;99.90;;;;;;5071146;28;20495;-77
2023/12/29 11:14:25;;;;;;;12.10;2.65;;;9.60;99.90;;;;;;5053831;28;20066;-78
2023/12/29 11:16:54;;;;;;;15.52;3.25;;;9.50;99.90;;;;;;5071095;28;20049;-77
2023/12/29 11:19:21;;;;;;;15.80;3.25;;;9.60;99.90;;;;;;5053821;28;20048;-75
2023/12/29 11:21:49;;;;;;;15.55;2.80;;;9.60;99.90;;;;;;5054116;28;20040;-76
2023/12/29 11:24:14;;;;;;;15.48;3.60;;;9.60;99.90;;;;;;5070647;28;20059;-76
2023/12/29 11:26:41;;;;;;;16.80;4.10;;;9.60;99.90;;;;;;5070650;28;20045;-75
2023/12/29 11:29:08;;;;;;;19.23;3.20;;;9.60;99.90;;;;;;5070727;28;20110;-75
2023/12/29 11:31:34;;;;;;;18.63;4.00;;;9.60;99.90;;;;;;5070463;28;20049;-75
2023/12/29 11:34:06;;;;;;;15.38;2.90;;;9.60;99.90;;;;;;5070784;28;20140;-75
2023/12/29 11:36:42;;;;;;;19.05;3.47;;;9.60;99.90;;;;;;5070117;28;20094;-74
2023/12/29 11:39:20;;;;;;;17.80;4.22;;;9.70;99.90;;;;;;5070589;28;20074;-73
2023/12/29 11:41:58;;;;;;;18.33;3.72;;;9.60;99.90;;;;;;5070650;28;20059;-80
2023/12/29 11:44:28;;;;;;;16.30;3.60;;;9.60;99.90;;;;;;5069875;28;20057;-74
2023/12/29 11:46:54;;;;;;;20.23;4.32;;;9.50;99.90;;;;;;5056583;28;20051;-75
2023/12/29 11:49:19;;;;;;;13.90;3.28;;;9.50;99.90;;;;;;5073929;28;20048;-76
2023/12/29 11:51:49;;;;;;;17.67;4.03;;;9.50;99.90;;;;;;5074703;28;20368;-76
2023/12/29 11:54:23;;;;;;;18.15;3.55;;;9.50;99.90;;;;;;5073734;28;20144;-81
2023/12/29 11:56:49;;;;;;;16.27;3.60;;;9.40;99.90;;;;;;5074454;28;20044;-75
2023/12/29 11:59:23;;;;;;;12.35;3.35;;;9.50;99.90;;;;;;5057327;28;20508;-81
2023/12/29 12:01:54;;;;;;;23.67;3.80;;;9.60;99.90;;;;;;5074444;28;20094;-71
2023/12/29 12:04:43;;;;;;;18.73;3.50;;;9.80;99.90;;;;;;5074677;28;20080;-68
2023/12/29 12:07:33;;;;;;;16.45;3.67;;;10.00;99.90;;;;;;5074962;28;20048;-68
2023/12/29 12:10:24;;;;;;;12.93;3.28;;;10.20;99.90;;;;;;5075756;28;20091;-78
2023/12/29 12:12:54;;;;;;;10.95;2.70;;;10.20;99.90;;;;;;5073469;28;20048;-76
2023/12/29 12:15:29;;;;;;;13.02;2.97;;;10.20;99.90;;;;;;5073784;28;20053;-78
2023/12/29 12:17:56;;;;;;;19.48;4.07;;;10.20;99.90;;;;;;5056699;28;20149;-77
2023/12/29 12:20:22;;;;;;;16.95;3.40;;;10.30;99.90;;;;;;5072983;28;20048;-78
2023/12/29 12:22:58;;;;;;;23.92;3.47;;;10.30;99.90;;;;;;5074316;28;20052;-77
2023/12/29 12:25:30;;;;;;;15.95;3.58;;;10.20;99.90;;;;;;5057229;28;20048;-79
2023/12/29 12:27:57;;;;;;;17.67;4.00;;;10.20;99.90;;;;;;5074036;28;20040;-77
2023/12/29 12:30:22;;;;;;;15.07;3.13;;;10.10;99.90;;;;;;5073439;28;20052;-79
2023/12/29 12:33:02;;;;;;;18.58;2.92;;;10.00;99.90;;;;;;5073869;28;20036;-77
2023/12/29 12:35:28;;;;;;;10.98;2.78;;;9.90;99.90;;;;;;5056963;28;20174;-77
2023/12/29 12:38:24;;;;;;;12.35;3.50;;;9.80;99.90;;;;;;5073840;28;20080;-77
2023/12/29 12:40:50;;;;;;;12.25;3.47;;;9.80;99.90;;;;;;5073869;28;20055;-77
2023/12/29 12:43:17;;;;;;;16.50;2.95;;;9.80;99.90;;;;;;5073333;28;20109;-77
2023/12/29 12:45:48;;;;;;;15.10;3.38;;;9.80;99.90;;;;;;5056953;28;20064;-77